Time;durP1;ratioP1;P1;durP2;ratioP2;P2;SDS_P1;SDS_P2;PMS_P1;PMS_P2;Temp;Humidity;BMP_temperature;BMP_pressure;BME280_temperature;BME280_humidity;BME280_pressure;Samples;Min_cycle;Max_cycle;Signal;HPM_P1;HPM_P2
2023/12/06 00:02:12;;;;;;;40.97;19.08;;;6.30;76.90;;;;;;4998098;28;20419;-64
2023/12/06 00:04:38;;;;;;;38.67;21.35;;;6.30;76.90;;;;;;4998136;28;20077;-63
2023/12/06 00:07:04;;;;;;;42.28;22.13;;;6.30;76.90;;;;;;4998248;28;20030;-63
2023/12/06 00:09:31;;;;;;;49.22;24.58;;;6.30;76.90;;;;;;4997970;28;20329;-64
2023/12/06 00:11:56;;;;;;;42.22;20.80;;;6.30;77.00;;;;;;4997956;28;20030;-64
2023/12/06 00:14:22;;;;;;;43.80;21.75;;;6.30;77.10;;;;;;4997867;28;20360;-63
2023/12/06 00:16:48;;;;;;;41.72;20.63;;;6.30;77.20;;;;;;4998340;28;20031;-64
2023/12/06 00:19:14;;;;;;;40.03;21.65;;;6.30;77.10;;;;;;4998354;28;20061;-64
2023/12/06 00:21:41;;;;;;;43.55;22.77;;;6.30;77.20;;;;;;4997715;28;20045;-64
2023/12/06 00:24:08;;;;;;;44.30;22.48;;;6.30;77.00;;;;;;4997636;28;20058;-64
2023/12/06 00:26:34;;;;;;;37.95;20.00;;;6.30;77.00;;;;;;4997820;28;20099;-64
2023/12/06 00:29:00;;;;;;;38.80;19.30;;;6.30;77.00;;;;;;4997621;28;20033;-64
2023/12/06 00:31:26;;;;;;;36.22;19.40;;;6.30;76.90;;;;;;4998124;28;20018;-64
2023/12/06 00:33:52;;;;;;;34.45;18.55;;;6.20;77.10;;;;;;4997499;28;20033;-64
2023/12/06 00:36:18;;;;;;;38.63;19.92;;;6.20;77.10;;;;;;4997754;28;20231;-64
2023/12/06 00:38:44;;;;;;;43.35;21.05;;;6.20;77.10;;;;;;4997700;28;20436;-64
2023/12/06 00:41:10;;;;;;;47.28;23.67;;;6.30;77.20;;;;;;4997713;28;20018;-64
2023/12/06 00:43:36;;;;;;;41.45;19.77;;;6.20;77.10;;;;;;4997036;28;20353;-64
2023/12/06 00:46:02;;;;;;;38.33;20.75;;;6.30;77.00;;;;;;4997246;28;20106;-64
2023/12/06 00:48:28;;;;;;;41.47;20.60;;;6.20;77.00;;;;;;4997291;28;20027;-64
2023/12/06 00:50:54;;;;;;;48.53;24.30;;;6.20;77.10;;;;;;4997508;28;20023;-64
2023/12/06 00:53:20;;;;;;;40.00;21.80;;;6.20;77.10;;;;;;4997124;28;20387;-64
2023/12/06 00:55:46;;;;;;;44.22;21.98;;;6.20;77.00;;;;;;4997402;28;20138;-64
2023/12/06 00:58:11;;;;;;;36.88;20.15;;;6.20;77.20;;;;;;4997324;28;20041;-64
2023/12/06 01:00:38;;;;;;;39.85;21.63;;;6.30;77.20;;;;;;4997039;28;20317;-64
2023/12/06 01:03:04;;;;;;;36.53;19.90;;;6.30;77.10;;;;;;4996678;28;20113;-63
2023/12/06 01:05:30;;;;;;;41.65;20.25;;;6.30;77.20;;;;;;4996885;28;20018;-64
2023/12/06 01:07:56;;;;;;;42.45;20.48;;;6.30;77.20;;;;;;4997411;28;20101;-63
2023/12/06 01:10:23;;;;;;;36.67;20.17;;;6.30;77.00;;;;;;4996893;28;20044;-63
2023/12/06 01:12:49;;;;;;;37.67;19.52;;;6.30;77.10;;;;;;4996718;28;20133;-64
2023/12/06 01:15:15;;;;;;;34.47;18.58;;;6.30;77.00;;;;;;4996789;28;20045;-63
2023/12/06 01:17:41;;;;;;;35.90;19.42;;;6.30;77.00;;;;;;4997013;28;20026;-64
2023/12/06 01:20:08;;;;;;;36.10;19.50;;;6.40;77.10;;;;;;4996943;28;20034;-64
2023/12/06 01:22:34;;;;;;;33.47;17.80;;;6.40;77.00;;;;;;4996543;28;20037;-64
2023/12/06 01:25:00;;;;;;;34.95;17.63;;;6.40;77.00;;;;;;4996858;28;20092;-64
2023/12/06 01:27:27;;;;;;;39.33;19.55;;;6.40;76.90;;;;;;4996763;28;20329;-64
2023/12/06 01:29:53;;;;;;;37.90;19.73;;;6.40;76.80;;;;;;4996757;28;20030;-63
2023/12/06 01:32:19;;;;;;;38.85;19.35;;;6.30;76.90;;;;;;4996956;28;20022;-63
2023/12/06 01:34:46;;;;;;;38.85;19.88;;;6.30;77.00;;;;;;4996963;28;20037;-64
2023/12/06 01:37:12;;;;;;;37.50;18.02;;;6.30;77.20;;;;;;4996666;28;20057;-64
2023/12/06 01:39:39;;;;;;;42.05;20.70;;;6.30;77.00;;;;;;4996364;28;20439;-64
2023/12/06 01:42:05;;;;;;;38.10;18.83;;;6.30;77.00;;;;;;4996235;28;20127;-63
2023/12/06 01:44:30;;;;;;;38.83;18.60;;;6.30;77.00;;;;;;4996140;28;20096;-63
2023/12/06 01:46:56;;;;;;;37.30;18.27;;;6.30;77.10;;;;;;4996202;28;20057;-64
2023/12/06 01:49:23;;;;;;;35.00;17.92;;;6.30;77.00;;;;;;4996459;28;20027;-64
2023/12/06 01:51:49;;;;;;;36.85;17.98;;;6.40;77.00;;;;;;4996745;28;20018;-63
2023/12/06 01:54:15;;;;;;;38.88;20.40;;;6.30;77.10;;;;;;4996349;28;20055;-63
2023/12/06 01:56:44;;;;;;;33.22;17.85;;;6.30;77.20;;;;;;4996639;28;20036;-64
2023/12/06 01:59:11;;;;;;;31.15;16.98;;;6.40;77.20;;;;;;4996029;28;20045;-64
2023/12/06 02:01:37;;;;;;;35.85;18.75;;;6.40;77.10;;;;;;4996304;28;20145;-64
2023/12/06 02:04:04;;;;;;;36.10;17.10;;;6.40;77.10;;;;;;4996178;28;20104;-64
2023/12/06 02:06:30;;;;;;;37.90;19.05;;;6.30;77.10;;;;;;4996456;28;20026;-64
2023/12/06 02:08:58;;;;;;;34.33;18.67;;;6.40;77.00;;;;;;4995968;28;20014;-64
2023/12/06 02:11:25;;;;;;;29.20;15.90;;;6.30;77.00;;;;;;4996208;28;20026;-63
2023/12/06 02:13:51;;;;;;;32.08;16.63;;;6.40;77.00;;;;;;4996379;28;20065;-63
2023/12/06 02:16:18;;;;;;;30.42;17.17;;;6.40;77.00;;;;;;4977795;28;20026;-63
2023/12/06 02:18:44;;;;;;;33.10;17.02;;;6.40;76.90;;;;;;4995855;28;20077;-64
2023/12/06 02:21:10;;;;;;;37.05;18.80;;;6.40;76.90;;;;;;4996369;28;20026;-63
2023/12/06 02:23:39;;;;;;;38.92;19.75;;;6.40;76.90;;;;;;4995983;28;20030;-63
2023/12/06 02:26:05;;;;;;;39.55;19.90;;;6.30;76.90;;;;;;4995741;28;20018;-63
2023/12/06 02:28:31;;;;;;;34.65;18.60;;;6.40;76.90;;;;;;4996341;28;20459;-63
2023/12/06 02:30:57;;;;;;;33.45;16.52;;;6.30;77.00;;;;;;4995749;28;20023;-63
2023/12/06 02:33:24;;;;;;;38.25;18.63;;;6.40;77.10;;;;;;4995788;28;20030;-63
2023/12/06 02:35:56;;;;;;;34.90;17.80;;;6.30;77.10;;;;;;4995728;28;20026;-64
2023/12/06 02:38:22;;;;;;;36.85;18.63;;;6.30;77.00;;;;;;4996022;28;20090;-63
2023/12/06 02:40:51;;;;;;;44.67;22.83;;;6.30;77.00;;;;;;4995632;28;20033;-64
2023/12/06 02:43:18;;;;;;;32.83;16.55;;;6.30;76.90;;;;;;4995437;28;20113;-64
2023/12/06 02:45:45;;;;;;;32.83;17.73;;;6.30;77.00;;;;;;4995814;28;20037;-63
2023/12/06 02:48:11;;;;;;;31.58;16.92;;;6.30;77.00;;;;;;4995649;28;20031;-64
2023/12/06 02:50:37;;;;;;;32.20;17.15;;;6.30;77.00;;;;;;4995821;28;20069;-64
2023/12/06 02:53:03;;;;;;;33.63;16.58;;;6.30;77.10;;;;;;4995560;28;20026;-64
2023/12/06 02:55:29;;;;;;;32.63;16.77;;;6.30;77.00;;;;;;4995565;28;20019;-64
2023/12/06 02:57:55;;;;;;;36.80;18.27;;;6.30;77.10;;;;;;4996099;28;20062;-63
2023/12/06 03:00:21;;;;;;;30.30;16.30;;;6.30;77.10;;;;;;4995805;28;20029;-63
2023/12/06 03:02:47;;;;;;;26.73;15.70;;;6.30;77.10;;;;;;4996489;28;20034;-63
2023/12/06 03:05:14;;;;;;;30.02;16.55;;;6.20;77.00;;;;;;4995718;28;20113;-63
2023/12/06 03:07:40;;;;;;;31.67;16.70;;;6.20;77.00;;;;;;4995671;28;20031;-64
2023/12/06 03:10:06;;;;;;;36.17;17.83;;;6.20;77.00;;;;;;4995437;28;20026;-64
2023/12/06 03:12:32;;;;;;;29.20;16.42;;;6.20;77.00;;;;;;4995347;28;20038;-64
2023/12/06 03:14:58;;;;;;;29.70;15.40;;;6.20;76.70;;;;;;4995661;28;20015;-64
2023/12/06 03:17:24;;;;;;;37.35;17.83;;;6.10;76.80;;;;;;4995367;28;20034;-64
2023/12/06 03:19:50;;;;;;;33.67;16.92;;;6.00;76.90;;;;;;4995342;28;20030;-64
2023/12/06 03:22:16;;;;;;;32.22;16.30;;;6.00;77.00;;;;;;4995794;28;20054;-64
2023/12/06 03:24:42;;;;;;;31.95;17.17;;;6.00;77.10;;;;;;4995558;28;20061;-63
2023/12/06 03:27:08;;;;;;;32.20;15.88;;;6.00;77.00;;;;;;4996573;28;20351;-63
2023/12/06 03:29:34;;;;;;;34.08;16.60;;;5.90;76.80;;;;;;4999030;28;20050;-64
2023/12/06 03:32:00;;;;;;;30.60;16.00;;;5.90;76.70;;;;;;4999016;28;20028;-63
2023/12/06 03:34:26;;;;;;;34.88;16.92;;;5.90;76.70;;;;;;4998631;28;20439;-63
2023/12/06 03:36:52;;;;;;;32.50;17.90;;;5.90;76.70;;;;;;4998686;28;20030;-64
2023/12/06 03:39:18;;;;;;;36.22;16.55;;;5.80;76.50;;;;;;4999139;28;20034;-64
2023/12/06 03:41:44;;;;;;;27.83;15.40;;;5.70;76.70;;;;;;4998554;28;20495;-64
2023/12/06 03:44:10;;;;;;;32.92;17.08;;;5.70;76.60;;;;;;4998265;28;20057;-66
2023/12/06 03:46:36;;;;;;;31.08;15.27;;;5.70;76.60;;;;;;4998385;28;20106;-64
2023/12/06 03:49:02;;;;;;;27.10;14.02;;;5.60;76.60;;;;;;4998346;28;20400;-63
2023/12/06 03:51:28;;;;;;;27.45;14.52;;;5.60;76.70;;;;;;4998396;28;20034;-63
2023/12/06 03:53:55;;;;;;;29.95;15.27;;;5.50;76.80;;;;;;4998526;28;20027;-63
2023/12/06 03:56:22;;;;;;;30.45;15.55;;;5.60;76.80;;;;;;4998251;28;20034;-63
2023/12/06 03:58:48;;;;;;;29.05;14.10;;;5.60;76.60;;;;;;4998733;28;20149;-63
2023/12/06 04:01:14;;;;;;;30.80;16.60;;;5.50;76.60;;;;;;4998173;28;20149;-63
2023/12/06 04:03:41;;;;;;;30.77;16.88;;;5.50;76.40;;;;;;4998003;28;20034;-63
2023/12/06 04:06:07;;;;;;;35.40;16.85;;;5.40;76.50;;;;;;4998270;28;20034;-63
2023/12/06 04:08:33;;;;;;;24.40;14.25;;;5.40;76.70;;;;;;4980833;28;20053;-64
2023/12/06 04:10:59;;;;;;;29.88;14.40;;;5.40;76.50;;;;;;4998006;28;20054;-64
2023/12/06 04:13:25;;;;;;;31.10;15.63;;;5.30;76.40;;;;;;4997919;28;20037;-63
2023/12/06 04:15:52;;;;;;;30.20;16.45;;;5.30;76.50;;;;;;4997965;28;20432;-64
2023/12/06 04:18:18;;;;;;;34.45;17.45;;;5.30;76.60;;;;;;4997795;28;20056;-64
2023/12/06 04:20:44;;;;;;;29.17;15.30;;;5.20;76.60;;;;;;4998098;28;20085;-63
2023/12/06 04:23:10;;;;;;;32.63;15.57;;;5.20;76.30;;;;;;4997744;28;20033;-63
2023/12/06 04:25:37;;;;;;;32.90;16.20;;;5.10;76.30;;;;;;4997729;28;20046;-63
2023/12/06 04:28:03;;;;;;;28.88;15.00;;;5.10;76.40;;;;;;4997882;28;20026;-63
2023/12/06 04:30:29;;;;;;;28.70;15.45;;;5.10;76.50;;;;;;4997640;28;20073;-63
2023/12/06 04:32:55;;;;;;;33.88;17.27;;;5.00;76.30;;;;;;4997875;28;20030;-63
2023/12/06 04:35:21;;;;;;;30.83;16.52;;;5.00;76.00;;;;;;4997557;28;20396;-64
2023/12/06 04:37:47;;;;;;;31.63;16.77;;;4.90;75.60;;;;;;4997276;28;20053;-64
2023/12/06 04:40:13;;;;;;;28.13;16.02;;;4.80;75.60;;;;;;4997300;28;20046;-64
2023/12/06 04:42:39;;;;;;;31.15;16.60;;;4.70;75.90;;;;;;4997144;28;20025;-64
2023/12/06 04:45:06;;;;;;;32.92;15.82;;;4.70;75.90;;;;;;4997636;28;20474;-63
2023/12/06 04:47:32;;;;;;;31.35;14.73;;;4.60;76.00;;;;;;4997548;28;20026;-63
2023/12/06 04:49:58;;;;;;;32.10;15.73;;;4.60;76.30;;;;;;4997565;28;20027;-63
2023/12/06 04:52:24;;;;;;;29.80;15.82;;;4.50;76.60;;;;;;4997163;28;20041;-63
2023/12/06 04:54:51;;;;;;;29.92;16.35;;;4.50;76.60;;;;;;4997698;28;20335;-64
2023/12/06 04:57:17;;;;;;;31.90;16.23;;;4.60;76.90;;;;;;4997374;28;20408;-64
2023/12/06 04:59:44;;;;;;;27.88;14.43;;;4.60;76.70;;;;;;4997629;28;20034;-64
2023/12/06 05:02:10;;;;;;;30.98;15.18;;;4.50;76.70;;;;;;4996981;28;20057;-63
2023/12/06 05:04:36;;;;;;;33.90;15.48;;;4.50;76.60;;;;;;4997017;28;20085;-63
2023/12/06 05:07:02;;;;;;;30.60;15.82;;;4.50;76.70;;;;;;4996917;28;20030;-63
2023/12/06 05:09:28;;;;;;;35.63;18.00;;;4.50;76.60;;;;;;4997156;28;20348;-63
2023/12/06 05:11:54;;;;;;;30.38;15.32;;;4.50;76.70;;;;;;4997101;28;20054;-63
2023/12/06 05:14:20;;;;;;;34.22;17.08;;;4.50;76.60;;;;;;4996762;28;20077;-64
2023/12/06 05:16:46;;;;;;;29.95;15.55;;;4.50;76.80;;;;;;4996743;28;20026;-64
2023/12/06 05:19:12;;;;;;;34.85;18.40;;;4.50;76.80;;;;;;4996999;28;20088;-64
2023/12/06 05:21:38;;;;;;;29.60;15.98;;;4.50;76.70;;;;;;4996682;28;20101;-64
2023/12/06 05:24:04;;;;;;;31.75;16.42;;;4.50;76.70;;;;;;4996564;28;20506;-64
2023/12/06 05:26:30;;;;;;;31.65;16.38;;;4.50;76.50;;;;;;4996565;28;20018;-63
2023/12/06 05:28:58;;;;;;;29.00;14.68;;;4.40;76.50;;;;;;4996577;28;20080;-63
2023/12/06 05:31:24;;;;;;;30.45;16.50;;;4.40;76.50;;;;;;4996404;28;20026;-64
2023/12/06 05:33:50;;;;;;;27.45;15.00;;;4.40;76.60;;;;;;4996418;28;20022;-63
2023/12/06 05:36:16;;;;;;;27.25;14.48;;;4.40;76.60;;;;;;4996691;28;20030;-64
2023/12/06 05:38:43;;;;;;;27.33;15.75;;;4.40;76.50;;;;;;4996662;28;20332;-63
2023/12/06 05:41:09;;;;;;;29.88;16.25;;;4.30;76.70;;;;;;4996834;28;20026;-63
2023/12/06 05:43:35;;;;;;;33.08;17.17;;;4.30;76.60;;;;;;4995940;28;20054;-63
2023/12/06 05:46:02;;;;;;;32.17;17.38;;;4.30;76.50;;;;;;4996188;28;20022;-63
2023/12/06 05:48:27;;;;;;;32.15;17.27;;;4.30;76.60;;;;;;4996191;28;20037;-63
2023/12/06 05:50:53;;;;;;;34.03;17.42;;;4.30;76.50;;;;;;4996244;28;20102;-63
2023/12/06 05:53:19;;;;;;;36.55;18.95;;;4.30;76.30;;;;;;4996148;28;20443;-63
2023/12/06 05:55:45;;;;;;;32.92;17.38;;;4.10;75.50;;;;;;4996166;28;20347;-63
2023/12/06 05:58:12;;;;;;;42.83;20.92;;;4.20;76.00;;;;;;4996376;28;20033;-63
2023/12/06 06:00:38;;;;;;;40.08;19.33;;;4.10;76.40;;;;;;4996082;28;20018;-63
2023/12/06 06:03:04;;;;;;;39.05;18.25;;;4.10;76.70;;;;;;4996296;28;20052;-63
2023/12/06 06:05:30;;;;;;;41.05;19.17;;;4.20;76.60;;;;;;4996516;28;20478;-63
2023/12/06 06:07:57;;;;;;;45.90;19.23;;;4.10;76.70;;;;;;4995927;28;20026;-64
2023/12/06 06:10:23;;;;;;;38.65;17.73;;;4.10;76.60;;;;;;4996204;28;20035;-63
2023/12/06 06:12:49;;;;;;;40.60;17.63;;;4.00;76.70;;;;;;4995853;28;20094;-63
2023/12/06 06:15:15;;;;;;;35.58;17.33;;;4.00;76.70;;;;;;4996129;28;20018;-63
2023/12/06 06:17:41;;;;;;;41.15;20.23;;;4.00;76.80;;;;;;4995848;28;20226;-63
2023/12/06 06:20:09;;;;;;;42.53;20.58;;;4.00;77.10;;;;;;4978735;28;20026;-63
2023/12/06 06:22:36;;;;;;;40.45;19.98;;;3.90;77.10;;;;;;4995693;28;20065;-63
2023/12/06 06:25:02;;;;;;;45.53;19.40;;;3.90;77.60;;;;;;4995885;28;20029;-63
2023/12/06 06:27:28;;;;;;;36.40;17.50;;;3.90;78.00;;;;;;4978956;28;20068;-64
2023/12/06 06:29:54;;;;;;;43.60;19.50;;;3.90;78.10;;;;;;4996265;28;20061;-64
2023/12/06 06:32:20;;;;;;;35.10;17.75;;;3.90;78.20;;;;;;4995736;28;20058;-63
2023/12/06 06:34:48;;;;;;;32.55;16.73;;;3.90;78.30;;;;;;4996262;28;20428;-62
2023/12/06 06:37:14;;;;;;;39.05;18.45;;;3.90;78.40;;;;;;4995646;28;20489;-62
2023/12/06 06:39:40;;;;;;;31.67;17.30;;;3.90;78.80;;;;;;4996197;28;20101;-61
2023/12/06 06:42:06;;;;;;;32.95;17.25;;;3.90;78.80;;;;;;4995919;28;20069;-61
2023/12/06 06:44:33;;;;;;;31.60;17.77;;;3.80;79.00;;;;;;4995496;28;20070;-61
2023/12/06 06:47:00;;;;;;;27.13;15.02;;;3.80;79.50;;;;;;4995523;28;20085;-61
2023/12/06 06:49:26;;;;;;;30.02;16.98;;;3.70;79.10;;;;;;4978484;28;20028;-61
2023/12/06 06:51:52;;;;;;;28.92;15.27;;;3.70;79.10;;;;;;4995645;28;20073;-63
2023/12/06 06:56:54;;;;;;;30.35;13.80;;;3.70;79.10;;;;;;4966493;23;20107;-64
2023/12/06 06:59:20;;;;;;;35.60;16.40;;;3.70;79.30;;;;;;4937539;29;20035;-65
2023/12/06 07:01:46;;;;;;;26.60;15.70;;;3.70;79.40;;;;;;4938118;29;20086;-66
2023/12/06 07:04:12;;;;;;;32.80;17.02;;;3.70;79.30;;;;;;4941219;29;20039;-66
2023/12/06 07:06:38;;;;;;;27.60;15.60;;;3.80;79.10;;;;;;4941043;29;20031;-66
2023/12/06 07:09:04;;;;;;;34.60;16.38;;;3.80;79.00;;;;;;4941721;29;20035;-66
2023/12/06 07:11:33;;;;;;;30.30;16.50;;;3.80;79.00;;;;;;4941363;29;20024;-66
2023/12/06 07:13:59;;;;;;;27.25;15.45;;;3.80;78.80;;;;;;4940900;29;20449;-69
2023/12/06 07:16:30;;;;;;;32.63;16.83;;;3.80;78.70;;;;;;5266470;23;20058;-70
2023/12/06 07:18:57;;;;;;;31.05;16.27;;;3.80;78.50;;;;;;4979974;28;20022;-71
2023/12/06 07:21:23;;;;;;;30.13;15.88;;;3.80;78.60;;;;;;4979691;28;20031;-70
2023/12/06 07:23:49;;;;;;;32.05;16.80;;;3.80;78.50;;;;;;4979414;28;20507;-72
2023/12/06 07:26:15;;;;;;;33.60;19.20;;;3.80;78.50;;;;;;4979491;28;20447;-71
2023/12/06 07:28:41;;;;;;;27.90;16.60;;;3.70;78.70;;;;;;4979284;28;20015;-70
2023/12/06 07:31:07;;;;;;;29.75;15.27;;;3.80;78.70;;;;;;4979202;28;20483;-72
2023/12/06 07:33:35;;;;;;;32.97;17.35;;;3.80;78.70;;;;;;4979220;28;20034;-73
2023/12/06 07:36:03;;;;;;;36.70;19.33;;;3.80;78.60;;;;;;4978957;28;20050;-69
2023/12/06 07:38:29;;;;;;;32.10;18.15;;;3.90;78.40;;;;;;4979349;28;20063;-72
2023/12/06 07:40:55;;;;;;;31.83;18.35;;;3.90;78.30;;;;;;4979262;28;20031;-71
2023/12/06 07:43:22;;;;;;;32.55;19.70;;;4.00;78.40;;;;;;4979559;28;20348;-71
2023/12/06 07:45:48;;;;;;;38.33;21.42;;;4.00;78.30;;;;;;4978979;28;20109;-72
2023/12/06 07:48:15;;;;;;;36.80;23.52;;;4.10;78.30;;;;;;4979405;28;20022;-71
2023/12/06 07:50:43;;;;;;;33.67;20.92;;;4.10;78.40;;;;;;4961671;28;20050;-73
2023/12/06 07:53:10;;;;;;;33.50;20.73;;;4.10;78.20;;;;;;4979242;28;20087;-73
2023/12/06 07:55:36;;;;;;;34.35;20.30;;;4.20;78.40;;;;;;4978545;28;20451;-72
2023/12/06 07:58:02;;;;;;;41.95;23.98;;;4.30;78.40;;;;;;4962219;28;20055;-72
2023/12/06 08:00:33;;;;;;;40.65;23.80;;;4.30;78.40;;;;;;4978552;28;20066;-70
2023/12/06 08:02:59;;;;;;;40.92;24.25;;;4.40;78.60;;;;;;4978525;28;20147;-71
2023/12/06 08:05:26;;;;;;;44.10;22.30;;;4.50;78.60;;;;;;4978435;28;20121;-70
2023/12/06 08:07:52;;;;;;;51.28;26.30;;;4.50;78.20;;;;;;4978745;28;20412;-70
2023/12/06 08:10:25;;;;;;;47.42;27.15;;;4.60;78.30;;;;;;4978317;28;20026;-69
2023/12/06 08:12:54;;;;;;;73.43;33.25;;;4.70;78.10;;;;;;4961176;28;20026;-71
2023/12/06 08:15:21;;;;;;;57.53;28.35;;;4.80;78.00;;;;;;4961198;28;20034;-70
2023/12/06 08:17:47;;;;;;;62.80;32.33;;;4.90;78.40;;;;;;4978058;28;20133;-71
2023/12/06 08:20:13;;;;;;;61.60;30.38;;;4.90;78.60;;;;;;4978204;28;20089;-70
2023/12/06 08:22:39;;;;;;;56.40;28.38;;;5.00;78.50;;;;;;4978273;28;20066;-73
2023/12/06 08:25:06;;;;;;;59.38;30.02;;;5.20;78.80;;;;;;4961085;28;20475;-70
2023/12/06 08:27:34;;;;;;;76.43;38.85;;;5.30;78.80;;;;;;4978268;28;20113;-71
2023/12/06 08:30:02;;;;;;;76.90;40.30;;;5.50;78.90;;;;;;4959730;28;20019;-71
2023/12/06 08:32:29;;;;;;;64.78;34.65;;;5.60;78.80;;;;;;4960961;28;20093;-73
2023/12/06 08:34:55;;;;;;;68.53;35.10;;;5.70;78.70;;;;;;4978224;28;20468;-71
2023/12/06 08:37:21;;;;;;;69.78;34.40;;;5.90;78.60;;;;;;4978132;28;20047;-73
2023/12/06 08:39:47;;;;;;;68.60;32.85;;;6.00;78.60;;;;;;4977859;28;20455;-71
2023/12/06 08:42:17;;;;;;;62.28;32.45;;;6.10;78.40;;;;;;4978064;28;20336;-71
2023/12/06 08:44:43;;;;;;;54.95;29.95;;;6.30;78.00;;;;;;4960713;28;20026;-70
2023/12/06 08:47:10;;;;;;;61.65;32.90;;;6.40;78.20;;;;;;4977642;28;20471;-71
2023/12/06 08:49:39;;;;;;;54.42;29.42;;;6.50;78.00;;;;;;4960604;28;20018;-71
2023/12/06 08:52:06;;;;;;;55.88;28.30;;;6.60;78.00;;;;;;4978092;28;20077;-71
2023/12/06 08:54:37;;;;;;;60.55;30.42;;;6.80;77.90;;;;;;4977556;28;20019;-72
2023/12/06 08:57:04;;;;;;;56.63;30.85;;;6.90;77.60;;;;;;4977370;28;20034;-73
2023/12/06 08:59:30;;;;;;;47.40;25.13;;;7.00;77.70;;;;;;4970236;28;20337;-73
2023/12/06 09:01:56;;;;;;;52.72;25.50;;;7.20;77.50;;;;;;5241780;23;20066;-67
2023/12/06 09:04:22;;;;;;;47.15;25.35;;;7.30;77.40;;;;;;4939330;29;20031;-67
2023/12/06 09:06:48;;;;;;;38.72;21.85;;;7.50;77.20;;;;;;4922303;29;20385;-67
2023/12/06 09:11:51;;;;;;;40.85;23.05;;;7.90;77.10;;;;;;4996204;23;20388;-68
2023/12/06 09:14:36;;;;;;;37.75;21.98;;;8.00;77.00;;;;;;5477140;23;20022;-67
2023/12/06 09:17:02;;;;;;;37.63;20.63;;;8.20;76.60;;;;;;4938565;29;20031;-67
2023/12/06 09:19:30;;;;;;;42.17;25.25;;;8.40;76.60;;;;;;4938682;29;20020;-67
2023/12/06 09:21:56;;;;;;;43.35;24.58;;;8.50;76.70;;;;;;4938608;29;20098;-67
2023/12/06 09:24:22;;;;;;;45.67;24.83;;;8.60;76.30;;;;;;4938634;29;20071;-67
2023/12/06 09:26:48;;;;;;;37.67;20.48;;;8.70;76.10;;;;;;4937620;29;20103;-67
2023/12/06 09:29:13;;;;;;;29.40;17.85;;;8.80;75.80;;;;;;4938875;29;20476;-67
2023/12/06 09:31:40;;;;;;;40.72;22.42;;;8.90;75.50;;;;;;4938551;29;20074;-67
2023/12/06 09:34:06;;;;;;;34.20;21.00;;;8.90;75.20;;;;;;4938547;29;20034;-67
2023/12/06 09:36:33;;;;;;;36.92;21.42;;;8.90;75.00;;;;;;4938731;29;20047;-67
2023/12/06 09:39:00;;;;;;;39.53;22.75;;;8.90;74.90;;;;;;4938965;29;20062;-67
2023/12/06 09:41:31;;;;;;;32.58;20.17;;;9.00;74.60;;;;;;4938656;29;20028;-67
2023/12/06 09:43:59;;;;;;;37.72;22.13;;;9.00;74.50;;;;;;4938683;29;20031;-67
2023/12/06 09:46:26;;;;;;;31.92;19.10;;;9.00;74.30;;;;;;4938244;29;20064;-67
2023/12/06 09:48:55;;;;;;;38.78;21.90;;;9.00;74.20;;;;;;4938577;29;20421;-67
2023/12/06 09:51:22;;;;;;;36.92;21.13;;;8.90;74.20;;;;;;4938239;29;20504;-67
2023/12/06 09:53:49;;;;;;;32.35;20.20;;;9.00;74.00;;;;;;4938505;29;20057;-67
2023/12/06 09:56:15;;;;;;;36.60;20.77;;;9.00;74.20;;;;;;4938210;29;20051;-67
2023/12/06 09:58:43;;;;;;;38.50;22.73;;;9.00;74.30;;;;;;4938213;29;20509;-67
2023/12/06 10:01:09;;;;;;;38.35;22.92;;;9.00;74.30;;;;;;4938352;29;20035;-67
2023/12/06 10:03:36;;;;;;;35.17;21.33;;;9.00;74.60;;;;;;4938045;29;20070;-67
2023/12/06 10:06:03;;;;;;;38.90;22.27;;;9.10;74.40;;;;;;4938429;29;20058;-67
2023/12/06 10:08:33;;;;;;;36.20;20.88;;;9.10;74.40;;;;;;4938077;29;20433;-67
2023/12/06 10:11:26;;;;;;;33.92;21.88;;;9.10;74.40;;;;;;5140551;23;20063;-67
2023/12/06 10:13:53;;;;;;;27.95;17.27;;;9.20;74.70;;;;;;4957484;29;20035;-67
2023/12/06 10:16:21;;;;;;;20.27;13.02;;;9.30;73.20;;;;;;4957181;29;20039;-67
2023/12/06 10:18:52;;;;;;;19.05;13.13;;;9.40;71.10;;;;;;4957478;29;20031;-68
2023/12/06 10:21:19;;;;;;;22.35;13.52;;;9.50;70.20;;;;;;4957102;29;20031;-67
2023/12/06 10:23:53;;;;;;;22.13;13.85;;;9.60;69.90;;;;;;4957175;29;20471;-69
2023/12/06 10:26:19;;;;;;;18.83;10.73;;;9.60;69.20;;;;;;4956995;29;20062;-66
2023/12/06 10:28:45;;;;;;;13.32;7.88;;;9.70;69.50;;;;;;4957128;29;20064;-67
2023/12/06 10:31:12;;;;;;;16.00;9.50;;;9.80;69.20;;;;;;4957526;29;20031;-67
2023/12/06 10:33:39;;;;;;;16.35;10.10;;;9.90;68.40;;;;;;4957549;29;20078;-67
2023/12/06 10:36:08;;;;;;;18.13;10.68;;;10.00;68.60;;;;;;4956999;28;20496;-67
2023/12/06 10:38:45;;;;;;;15.40;9.70;;;10.10;68.90;;;;;;4960434;29;20023;-68
2023/12/06 10:41:15;;;;;;;14.73;9.30;;;10.20;67.80;;;;;;4961381;29;20035;-69
2023/12/06 10:43:43;;;;;;;13.32;8.40;;;10.30;67.20;;;;;;4960894;29;20036;-68
2023/12/06 10:46:11;;;;;;;17.98;9.80;;;10.50;67.10;;;;;;4961255;29;20045;-68
2023/12/06 10:48:38;;;;;;;15.05;9.23;;;10.60;67.60;;;;;;4960777;29;20027;-68
2023/12/06 10:51:05;;;;;;;15.38;9.80;;;10.70;66.50;;;;;;4960904;29;20472;-67
2023/12/06 10:53:32;;;;;;;16.35;10.88;;;10.80;65.90;;;;;;4960687;29;20026;-69
2023/12/06 10:56:01;;;;;;;18.00;11.10;;;10.90;65.40;;;;;;4960866;29;20032;-68
2023/12/06 10:58:27;;;;;;;16.48;9.73;;;10.90;63.60;;;;;;4960547;29;20019;-68
2023/12/06 11:00:54;;;;;;;19.10;11.32;;;10.90;65.20;;;;;;4960490;29;20023;-69
2023/12/06 11:03:21;;;;;;;17.50;11.07;;;10.90;66.90;;;;;;4960799;29;20082;-68
2023/12/06 11:05:52;;;;;;;19.35;11.43;;;11.00;67.40;;;;;;4960998;29;20027;-68
2023/12/06 11:08:43;;;;;;;16.48;10.35;;;11.00;66.60;;;;;;4957912;29;20026;-68
2023/12/06 11:11:46;;;;;;;17.77;11.05;;;11.00;65.50;;;;;;5228982;23;20055;-67
2023/12/06 11:14:37;;;;;;;16.25;10.23;;;11.00;65.10;;;;;;4979258;28;20037;-67
2023/12/06 11:17:16;;;;;;;18.10;10.38;;;11.00;66.30;;;;;;4980069;28;20027;-67
2023/12/06 11:19:42;;;;;;;16.48;9.55;;;11.00;65.60;;;;;;4980104;28;20026;-69
2023/12/06 11:22:09;;;;;;;14.70;9.25;;;11.00;65.70;;;;;;4979448;28;20037;-67
2023/12/06 11:24:36;;;;;;;16.15;9.82;;;11.00;65.60;;;;;;4979986;28;20019;-68
2023/12/06 11:27:03;;;;;;;16.88;9.93;;;11.00;65.70;;;;;;4979580;28;20444;-69
2023/12/06 11:29:31;;;;;;;17.27;10.65;;;11.00;66.30;;;;;;4979658;28;20102;-68
2023/12/06 11:31:58;;;;;;;15.20;9.23;;;11.00;66.00;;;;;;4979255;28;20031;-67
2023/12/06 11:34:37;;;;;;;16.45;10.30;;;11.10;66.40;;;;;;4979266;28;20110;-69
2023/12/06 11:37:08;;;;;;;16.98;10.75;;;11.10;65.70;;;;;;5231992;23;20065;-69
2023/12/06 11:39:34;;;;;;;16.23;10.27;;;11.10;65.60;;;;;;4979474;28;20034;-69
2023/12/06 11:42:00;;;;;;;15.80;9.82;;;11.20;66.10;;;;;;4979663;28;20034;-66
2023/12/06 11:44:26;;;;;;;17.15;9.98;;;11.10;65.50;;;;;;4979394;28;20026;-66
2023/12/06 11:46:57;;;;;;;15.02;9.77;;;11.10;64.80;;;;;;4979026;28;20035;-70
2023/12/06 11:49:27;;;;;;;13.95;7.70;;;11.20;65.20;;;;;;4979140;28;20372;-69
2023/12/06 11:52:00;;;;;;;12.07;8.02;;;11.20;65.50;;;;;;4979475;28;20066;-67
2023/12/06 11:54:31;;;;;;;13.80;8.43;;;11.20;65.70;;;;;;4979146;28;20027;-68
2023/12/06 11:57:08;;;;;;;14.20;8.60;;;11.20;64.80;;;;;;4978734;28;20034;-67
2023/12/06 11:59:34;;;;;;;13.77;8.30;;;11.30;65.00;;;;;;4979115;28;20093;-68
2023/12/06 12:02:01;;;;;;;14.75;8.73;;;11.30;65.00;;;;;;4978671;28;20379;-67
2023/12/06 12:04:28;;;;;;;14.43;8.40;;;11.30;64.40;;;;;;4979019;28;20344;-68
2023/12/06 12:06:58;;;;;;;14.88;8.38;;;11.40;64.40;;;;;;4978507;28;20039;-68
2023/12/06 12:09:25;;;;;;;13.13;8.15;;;11.40;63.70;;;;;;4979171;28;20205;-68
2023/12/06 12:11:53;;;;;;;11.02;7.10;;;11.40;64.30;;;;;;4978586;28;20054;-67
2023/12/06 12:14:19;;;;;;;12.55;7.70;;;11.40;64.20;;;;;;4978614;28;20027;-68
2023/12/06 12:16:44;;;;;;;13.05;8.27;;;11.50;64.60;;;;;;4978714;28;20061;-68
2023/12/06 12:19:11;;;;;;;13.68;7.30;;;11.50;64.70;;;;;;4978430;28;20452;-68
2023/12/06 12:21:37;;;;;;;11.23;7.22;;;11.60;64.50;;;;;;4978711;28;20404;-69
2023/12/06 12:24:03;;;;;;;14.00;8.93;;;11.60;64.00;;;;;;4977647;28;20467;-69
2023/12/06 12:26:30;;;;;;;14.57;9.50;;;11.60;64.10;;;;;;4977594;28;20039;-68
2023/12/06 12:28:58;;;;;;;16.10;10.07;;;11.70;64.30;;;;;;4978058;28;20027;-69
2023/12/06 12:31:28;;;;;;;16.45;9.63;;;11.90;64.20;;;;;;4978522;28;20038;-67
2023/12/06 12:33:55;;;;;;;15.48;9.30;;;11.90;64.40;;;;;;4977188;28;20440;-68
2023/12/06 12:38:51;;;;;;;17.55;10.88;;;11.90;64.30;;;;;;5230124;23;20058;-69
2023/12/06 12:41:17;;;;;;;17.42;9.30;;;12.00;64.70;;;;;;4978123;28;20071;-70
2023/12/06 12:43:43;;;;;;;12.98;9.02;;;12.10;64.60;;;;;;4978283;28;20027;-68